sensor_id;sensor_type;location;lat;lon;timestamp;P1;durP1;ratioP1;P2;durP2;ratioP2
53273;SDS011;39163;52.696;6.758;2022-09-01T00:02:13;1.10;;;0.43;;
53273;SDS011;39163;52.696;6.758;2022-09-01T00:04:41;1.88;;;0.40;;
53273;SDS011;39163;52.696;6.758;2022-09-01T00:07:09;1.15;;;0.50;;
53273;SDS011;39163;52.696;6.758;2022-09-01T00:09:36;2.83;;;0.50;;
53273;SDS011;39163;52.696;6.758;2022-09-01T00:12:04;4.68;;;0.50;;
53273;SDS011;39163;52.696;6.758;2022-09-01T00:14:33;1.33;;;0.43;;
53273;SDS011;39163;52.696;6.758;2022-09-01T00:17:03;1.27;;;0.30;;
53273;SDS011;39163;52.696;6.758;2022-09-01T00:19:30;1.83;;;0.47;;
53273;SDS011;39163;52.696;6.758;2022-09-01T00:21:57;5.35;;;0.77;;
53273;SDS011;39163;52.696;6.758;2022-09-01T00:24:24;2.08;;;0.50;;
53273;SDS011;39163;52.696;6.758;2022-09-01T00:26:51;2.00;;;0.50;;
53273;SDS011;39163;52.696;6.758;2022-09-01T00:29:19;1.77;;;0.50;;
53273;SDS011;39163;52.696;6.758;2022-09-01T00:31:45;3.47;;;0.40;;
53273;SDS011;39163;52.696;6.758;2022-09-01T00:34:11;2.45;;;0.63;;
53273;SDS011;39163;52.696;6.758;2022-09-01T00:36:37;4.47;;;0.43;;
53273;SDS011;39163;52.696;6.758;2022-09-01T00:39:03;2.72;;;0.43;;
53273;SDS011;39163;52.696;6.758;2022-09-01T00:41:32;1.25;;;0.60;;
53273;SDS011;39163;52.696;6.758;2022-09-01T00:44:01;3.17;;;0.60;;
53273;SDS011;39163;52.696;6.758;2022-09-01T00:46:33;3.65;;;0.50;;
53273;SDS011;39163;52.696;6.758;2022-09-01T00:49:08;3.40;;;0.60;;
53273;SDS011;39163;52.696;6.758;2022-09-01T00:51:38;3.63;;;0.70;;
53273;SDS011;39163;52.696;6.758;2022-09-01T00:54:07;2.25;;;0.60;;
53273;SDS011;39163;52.696;6.758;2022-09-01T00:56:37;2.05;;;0.40;;
53273;SDS011;39163;52.696;6.758;2022-09-01T00:59:05;1.27;;;0.47;;
53273;SDS011;39163;52.696;6.758;2022-09-01T01:01:32;2.22;;;0.63;;
53273;SDS011;39163;52.696;6.758;2022-09-01T01:04:05;3.17;;;0.57;;
53273;SDS011;39163;52.696;6.758;2022-09-01T01:06:39;2.25;;;0.40;;
53273;SDS011;39163;52.696;6.758;2022-09-01T01:09:07;1.35;;;0.43;;
53273;SDS011;39163;52.696;6.758;2022-09-01T01:11:33;2.47;;;0.50;;
53273;SDS011;39163;52.696;6.758;2022-09-01T01:14:04;3.50;;;0.50;;
53273;SDS011;39163;52.696;6.758;2022-09-01T01:16:42;1.63;;;0.77;;
53273;SDS011;39163;52.696;6.758;2022-09-01T01:19:14;2.17;;;0.47;;
53273;SDS011;39163;52.696;6.758;2022-09-01T01:22:11;3.00;;;0.60;;
53273;SDS011;39163;52.696;6.758;2022-09-01T01:25:02;2.10;;;0.60;;
53273;SDS011;39163;52.696;6.758;2022-09-01T01:27:31;1.52;;;0.40;;
53273;SDS011;39163;52.696;6.758;2022-09-01T01:30:00;3.53;;;0.40;;
53273;SDS011;39163;52.696;6.758;2022-09-01T01:32:27;0.77;;;0.30;;
53273;SDS011;39163;52.696;6.758;2022-09-01T01:34:53;2.25;;;0.40;;
53273;SDS011;39163;52.696;6.758;2022-09-01T01:37:22;1.70;;;0.32;;
53273;SDS011;39163;52.696;6.758;2022-09-01T01:39:49;3.30;;;0.38;;
53273;SDS011;39163;52.696;6.758;2022-09-01T01:42:16;2.88;;;0.50;;
53273;SDS011;39163;52.696;6.758;2022-09-01T01:44:42;2.88;;;0.60;;
53273;SDS011;39163;52.696;6.758;2022-09-01T01:47:10;5.18;;;0.60;;
53273;SDS011;39163;52.696;6.758;2022-09-01T01:49:37;1.65;;;0.40;;
53273;SDS011;39163;52.696;6.758;2022-09-01T01:52:08;2.13;;;0.30;;
53273;SDS011;39163;52.696;6.758;2022-09-01T01:54:39;2.28;;;0.32;;
53273;SDS011;39163;52.696;6.758;2022-09-01T01:57:05;1.58;;;0.32;;
53273;SDS011;39163;52.696;6.758;2022-09-01T01:59:32;1.17;;;0.40;;
53273;SDS011;39163;52.696;6.758;2022-09-01T02:01:58;2.08;;;0.70;;
53273;SDS011;39163;52.696;6.758;2022-09-01T02:04:27;0.90;;;0.40;;
53273;SDS011;39163;52.696;6.758;2022-09-01T02:06:58;1.13;;;0.60;;
53273;SDS011;39163;52.696;6.758;2022-09-01T02:09:24;3.22;;;0.60;;
53273;SDS011;39163;52.696;6.758;2022-09-01T02:11:50;1.05;;;0.40;;
53273;SDS011;39163;52.696;6.758;2022-09-01T02:14:21;0.93;;;0.45;;
53273;SDS011;39163;52.696;6.758;2022-09-01T02:16:47;1.83;;;0.50;;
53273;SDS011;39163;52.696;6.758;2022-09-01T02:19:13;2.25;;;0.50;;
53273;SDS011;39163;52.696;6.758;2022-09-01T02:21:43;1.58;;;0.35;;
53273;SDS011;39163;52.696;6.758;2022-09-01T02:24:19;1.77;;;0.40;;
53273;SDS011;39163;52.696;6.758;2022-09-01T02:26:46;3.30;;;0.40;;
53273;SDS011;39163;52.696;6.758;2022-09-01T02:29:30;2.05;;;0.47;;
53273;SDS011;39163;52.696;6.758;2022-09-01T02:34:22;2.03;;;0.40;;
53273;SDS011;39163;52.696;6.758;2022-09-01T02:36:51;2.55;;;0.40;;
53273;SDS011;39163;52.696;6.758;2022-09-01T02:39:25;2.60;;;0.50;;
53273;SDS011;39163;52.696;6.758;2022-09-01T02:41:53;1.10;;;0.40;;
53273;SDS011;39163;52.696;6.758;2022-09-01T02:44:22;2.55;;;0.32;;
53273;SDS011;39163;52.696;6.758;2022-09-01T02:46:48;2.83;;;0.77;;
53273;SDS011;39163;52.696;6.758;2022-09-01T02:49:18;1.40;;;0.60;;
53273;SDS011;39163;52.696;6.758;2022-09-01T02:51:49;0.88;;;0.40;;
53273;SDS011;39163;52.696;6.758;2022-09-01T02:54:19;6.13;;;0.50;;
53273;SDS011;39163;52.696;6.758;2022-09-01T02:56:46;5.90;;;1.08;;
53273;SDS011;39163;52.696;6.758;2022-09-01T02:59:17;2.28;;;0.50;;
53273;SDS011;39163;52.696;6.758;2022-09-01T03:01:45;2.05;;;0.60;;
53273;SDS011;39163;52.696;6.758;2022-09-01T03:04:12;1.75;;;0.47;;
53273;SDS011;39163;52.696;6.758;2022-09-01T03:06:38;1.98;;;0.60;;
53273;SDS011;39163;52.696;6.758;2022-09-01T03:09:06;2.15;;;0.60;;
53273;SDS011;39163;52.696;6.758;2022-09-01T03:11:35;3.00;;;0.73;;
53273;SDS011;39163;52.696;6.758;2022-09-01T03:14:03;4.85;;;0.90;;
53273;SDS011;39163;52.696;6.758;2022-09-01T03:16:29;2.88;;;0.50;;
53273;SDS011;39163;52.696;6.758;2022-09-01T03:18:56;1.98;;;0.52;;
53273;SDS011;39163;52.696;6.758;2022-09-01T03:21:22;2.95;;;0.90;;
53273;SDS011;39163;52.696;6.758;2022-09-01T03:23:51;1.98;;;0.70;;
53273;SDS011;39163;52.696;6.758;2022-09-01T03:26:17;1.73;;;0.63;;
53273;SDS011;39163;52.696;6.758;2022-09-01T03:28:46;2.97;;;0.80;;
53273;SDS011;39163;52.696;6.758;2022-09-01T03:31:13;1.42;;;0.80;;
53273;SDS011;39163;52.696;6.758;2022-09-01T03:33:39;3.05;;;0.90;;
53273;SDS011;39163;52.696;6.758;2022-09-01T03:36:08;2.70;;;0.80;;
53273;SDS011;39163;52.696;6.758;2022-09-01T03:38:44;3.05;;;0.70;;
53273;SDS011;39163;52.696;6.758;2022-09-01T03:41:13;2.20;;;0.70;;
53273;SDS011;39163;52.696;6.758;2022-09-01T03:43:41;4.97;;;0.75;;
53273;SDS011;39163;52.696;6.758;2022-09-01T03:46:08;2.30;;;0.80;;
53273;SDS011;39163;52.696;6.758;2022-09-01T03:48:43;1.05;;;0.70;;
53273;SDS011;39163;52.696;6.758;2022-09-01T03:51:08;3.38;;;0.82;;
53273;SDS011;39163;52.696;6.758;2022-09-01T03:53:36;7.78;;;0.82;;
53273;SDS011;39163;52.696;6.758;2022-09-01T03:56:03;2.95;;;0.77;;
53273;SDS011;39163;52.696;6.758;2022-09-01T03:58:29;3.40;;;0.90;;
53273;SDS011;39163;52.696;6.758;2022-09-01T04:00:56;2.13;;;1.10;;
53273;SDS011;39163;52.696;6.758;2022-09-01T04:03:26;3.85;;;0.70;;
53273;SDS011;39163;52.696;6.758;2022-09-01T04:05:53;2.33;;;1.00;;
53273;SDS011;39163;52.696;6.758;2022-09-01T04:08:19;3.38;;;0.80;;
53273;SDS011;39163;52.696;6.758;2022-09-01T04:10:53;1.60;;;0.60;;
53273;SDS011;39163;52.696;6.758;2022-09-01T04:13:26;1.73;;;1.33;;
53273;SDS011;39163;52.696;6.758;2022-09-01T04:15:54;3.83;;;1.33;;
53273;SDS011;39163;52.696;6.758;2022-09-01T04:18:21;4.28;;;0.82;;
53273;SDS011;39163;52.696;6.758;2022-09-01T04:20:49;3.42;;;1.15;;
53273;SDS011;39163;52.696;6.758;2022-09-01T04:23:21;2.80;;;1.10;;
53273;SDS011;39163;52.696;6.758;2022-09-01T04:25:55;2.80;;;1.23;;
53273;SDS011;39163;52.696;6.758;2022-09-01T04:28:25;4.53;;;0.85;;
53273;SDS011;39163;52.696;6.758;2022-09-01T04:30:58;4.22;;;0.80;;
53273;SDS011;39163;52.696;6.758;2022-09-01T04:33:25;6.57;;;1.00;;
53273;SDS011;39163;52.696;6.758;2022-09-01T04:35:52;1.35;;;0.60;;
53273;SDS011;39163;52.696;6.758;2022-09-01T04:38:22;4.07;;;1.30;;
53273;SDS011;39163;52.696;6.758;2022-09-01T04:40:49;2.47;;;1.05;;
53273;SDS011;39163;52.696;6.758;2022-09-01T04:43:16;2.60;;;0.82;;
53273;SDS011;39163;52.696;6.758;2022-09-01T04:45:42;2.72;;;1.08;;
53273;SDS011;39163;52.696;6.758;2022-09-01T04:48:09;1.73;;;1.08;;
53273;SDS011;39163;52.696;6.758;2022-09-01T04:50:35;1.80;;;0.73;;
53273;SDS011;39163;52.696;6.758;2022-09-01T04:53:05;1.60;;;0.75;;
53273;SDS011;39163;52.696;6.758;2022-09-01T04:55:36;2.83;;;0.98;;
53273;SDS011;39163;52.696;6.758;2022-09-01T04:58:04;2.28;;;0.60;;
53273;SDS011;39163;52.696;6.758;2022-09-01T05:00:29;1.42;;;1.00;;
53273;SDS011;39163;52.696;6.758;2022-09-01T05:02:58;1.23;;;0.60;;
53273;SDS011;39163;52.696;6.758;2022-09-01T05:05:28;2.72;;;0.73;;
53273;SDS011;39163;52.696;6.758;2022-09-01T05:08:03;3.50;;;0.60;;
53273;SDS011;39163;52.696;6.758;2022-09-01T05:10:30;1.35;;;0.82;;
53273;SDS011;39163;52.696;6.758;2022-09-01T05:13:01;2.05;;;0.80;;
53273;SDS011;39163;52.696;6.758;2022-09-01T05:15:34;3.67;;;0.80;;
53273;SDS011;39163;52.696;6.758;2022-09-01T05:18:01;2.65;;;0.88;;
53273;SDS011;39163;52.696;6.758;2022-09-01T05:20:37;3.20;;;0.80;;
53273;SDS011;39163;52.696;6.758;2022-09-01T05:23:10;1.70;;;0.80;;
53273;SDS011;39163;52.696;6.758;2022-09-01T05:25:40;1.30;;;0.70;;
53273;SDS011;39163;52.696;6.758;2022-09-01T05:28:08;3.28;;;1.10;;
53273;SDS011;39163;52.696;6.758;2022-09-01T05:30:37;7.10;;;0.77;;
53273;SDS011;39163;52.696;6.758;2022-09-01T05:33:04;2.70;;;0.60;;
53273;SDS011;39163;52.696;6.758;2022-09-01T05:35:38;1.13;;;0.80;;
53273;SDS011;39163;52.696;6.758;2022-09-01T05:38:08;2.70;;;0.82;;
53273;SDS011;39163;52.696;6.758;2022-09-01T05:40:39;1.38;;;0.50;;
53273;SDS011;39163;52.696;6.758;2022-09-01T05:43:10;3.28;;;1.02;;
53273;SDS011;39163;52.696;6.758;2022-09-01T05:45:38;3.17;;;0.90;;
53273;SDS011;39163;52.696;6.758;2022-09-01T05:48:08;1.50;;;0.70;;
53273;SDS011;39163;52.696;6.758;2022-09-01T05:50:40;4.18;;;1.02;;
53273;SDS011;39163;52.696;6.758;2022-09-01T05:53:15;3.17;;;0.70;;
53273;SDS011;39163;52.696;6.758;2022-09-01T05:55:45;3.70;;;0.70;;
53273;SDS011;39163;52.696;6.758;2022-09-01T05:58:15;5.28;;;0.70;;
53273;SDS011;39163;52.696;6.758;2022-09-01T06:00:41;2.00;;;0.60;;
53273;SDS011;39163;52.696;6.758;2022-09-01T06:03:11;1.48;;;0.60;;
53273;SDS011;39163;52.696;6.758;2022-09-01T06:05:39;1.92;;;0.80;;
53273;SDS011;39163;52.696;6.758;2022-09-01T06:08:07;3.53;;;0.98;;
53273;SDS011;39163;52.696;6.758;2022-09-01T06:10:38;3.20;;;1.35;;
53273;SDS011;39163;52.696;6.758;2022-09-01T06:13:08;3.83;;;0.70;;
53273;SDS011;39163;52.696;6.758;2022-09-01T06:15:36;2.80;;;0.75;;
53273;SDS011;39163;52.696;6.758;2022-09-01T06:18:06;2.83;;;1.13;;
53273;SDS011;39163;52.696;6.758;2022-09-01T06:20:45;1.67;;;0.50;;
53273;SDS011;39163;52.696;6.758;2022-09-01T06:23:21;1.75;;;1.00;;
53273;SDS011;39163;52.696;6.758;2022-09-01T06:25:47;3.97;;;0.70;;
53273;SDS011;39163;52.696;6.758;2022-09-01T06:28:13;5.07;;;1.00;;
53273;SDS011;39163;52.696;6.758;2022-09-01T06:30:47;1.60;;;0.50;;
53273;SDS011;39163;52.696;6.758;2022-09-01T06:33:26;2.30;;;0.80;;
53273;SDS011;39163;52.696;6.758;2022-09-01T06:35:52;2.50;;;0.50;;
53273;SDS011;39163;52.696;6.758;2022-09-01T06:38:20;10.68;;;0.90;;
53273;SDS011;39163;52.696;6.758;2022-09-01T06:40:45;2.35;;;0.40;;
53273;SDS011;39163;52.696;6.758;2022-09-01T06:43:15;1.80;;;0.50;;
53273;SDS011;39163;52.696;6.758;2022-09-01T06:45:43;3.33;;;0.50;;
53273;SDS011;39163;52.696;6.758;2022-09-01T06:48:19;1.65;;;0.50;;
53273;SDS011;39163;52.696;6.758;2022-09-01T06:50:46;2.90;;;0.57;;
53273;SDS011;39163;52.696;6.758;2022-09-01T06:53:30;4.30;;;0.70;;
53273;SDS011;39163;52.696;6.758;2022-09-01T06:56:01;3.03;;;0.40;;
53273;SDS011;39163;52.696;6.758;2022-09-01T06:58:35;4.63;;;0.57;;
53273;SDS011;39163;52.696;6.758;2022-09-01T07:01:06;2.80;;;0.50;;
53273;SDS011;39163;52.696;6.758;2022-09-01T07:03:40;3.95;;;0.40;;
53273;SDS011;39163;52.696;6.758;2022-09-01T07:06:08;1.08;;;0.30;;
53273;SDS011;39163;52.696;6.758;2022-09-01T07:08:37;1.30;;;0.45;;
53273;SDS011;39163;52.696;6.758;2022-09-01T07:11:15;6.70;;;0.57;;
53273;SDS011;39163;52.696;6.758;2022-09-01T07:13:48;3.55;;;0.50;;
53273;SDS011;39163;52.696;6.758;2022-09-01T07:16:17;15.15;;;1.17;;
53273;SDS011;39163;52.696;6.758;2022-09-01T07:18:46;2.30;;;0.40;;
53273;SDS011;39163;52.696;6.758;2022-09-01T07:21:17;2.55;;;0.82;;
53273;SDS011;39163;52.696;6.758;2022-09-01T07:23:44;3.15;;;0.40;;
53273;SDS011;39163;52.696;6.758;2022-09-01T07:26:10;5.03;;;0.65;;
53273;SDS011;39163;52.696;6.758;2022-09-01T07:28:42;3.03;;;0.70;;
53273;SDS011;39163;52.696;6.758;2022-09-01T07:31:16;1.00;;;0.45;;
53273;SDS011;39163;52.696;6.758;2022-09-01T07:33:48;3.22;;;1.63;;
53273;SDS011;39163;52.696;6.758;2022-09-01T07:36:18;1.55;;;0.40;;
53273;SDS011;39163;52.696;6.758;2022-09-01T07:38:44;3.92;;;1.17;;
53273;SDS011;39163;52.696;6.758;2022-09-01T07:41:18;3.22;;;0.90;;
53273;SDS011;39163;52.696;6.758;2022-09-01T07:43:48;3.17;;;0.75;;
53273;SDS011;39163;52.696;6.758;2022-09-01T07:46:17;1.85;;;0.90;;
53273;SDS011;39163;52.696;6.758;2022-09-01T07:48:43;4.10;;;0.57;;
53273;SDS011;39163;52.696;6.758;2022-09-01T07:51:10;3.05;;;0.82;;
53273;SDS011;39163;52.696;6.758;2022-09-01T07:53:43;1.45;;;0.60;;
53273;SDS011;39163;52.696;6.758;2022-09-01T07:56:12;3.25;;;0.60;;
53273;SDS011;39163;52.696;6.758;2022-09-01T07:58:39;4.93;;;0.70;;
53273;SDS011;39163;52.696;6.758;2022-09-01T08:01:09;1.75;;;0.40;;
53273;SDS011;39163;52.696;6.758;2022-09-01T08:03:37;1.92;;;0.40;;
53273;SDS011;39163;52.696;6.758;2022-09-01T08:06:08;3.88;;;0.50;;
53273;SDS011;39163;52.696;6.758;2022-09-01T08:08:36;2.90;;;0.50;;
53273;SDS011;39163;52.696;6.758;2022-09-01T08:11:04;2.28;;;0.47;;
53273;SDS011;39163;52.696;6.758;2022-09-01T08:13:37;2.25;;;0.60;;
53273;SDS011;39163;52.696;6.758;2022-09-01T08:16:03;3.60;;;0.60;;
53273;SDS011;39163;52.696;6.758;2022-09-01T08:18:29;2.72;;;0.57;;
53273;SDS011;39163;52.696;6.758;2022-09-01T08:20:55;1.33;;;0.50;;
53273;SDS011;39163;52.696;6.758;2022-09-01T08:23:21;0.95;;;0.40;;
53273;SDS011;39163;52.696;6.758;2022-09-01T08:25:53;2.78;;;0.40;;
53273;SDS011;39163;52.696;6.758;2022-09-01T08:28:22;2.30;;;0.50;;
53273;SDS011;39163;52.696;6.758;2022-09-01T08:30:50;1.92;;;0.30;;
53273;SDS011;39163;52.696;6.758;2022-09-01T08:33:16;2.65;;;0.30;;
53273;SDS011;39163;52.696;6.758;2022-09-01T08:35:42;1.50;;;0.28;;
53273;SDS011;39163;52.696;6.758;2022-09-01T08:38:16;5.93;;;0.93;;
53273;SDS011;39163;52.696;6.758;2022-09-01T08:40:48;2.83;;;0.30;;
53273;SDS011;39163;52.696;6.758;2022-09-01T08:46:46;1.95;;;0.20;;
53273;SDS011;39163;52.696;6.758;2022-09-01T08:48:59;3.03;;;0.30;;
53273;SDS011;39163;52.696;6.758;2022-09-01T08:54:41;0.88;;;0.20;;
53273;SDS011;39163;52.696;6.758;2022-09-01T09:00:11;0.95;;;0.20;;
53273;SDS011;39163;52.696;6.758;2022-09-01T09:16:33;1.08;;;0.20;;
53273;SDS011;39163;52.696;6.758;2022-09-01T09:19:08;0.70;;;0.10;;
53273;SDS011;39163;52.696;6.758;2022-09-01T09:21:53;0.63;;;0.10;;
53273;SDS011;39163;52.696;6.758;2022-09-01T09:26:53;0.28;;;0.10;;
53273;SDS011;39163;52.696;6.758;2022-09-01T09:29:23;4.53;;;0.25;;
53273;SDS011;39163;52.696;6.758;2022-09-01T09:32:00;1.27;;;0.13;;
53273;SDS011;39163;52.696;6.758;2022-09-01T09:34:40;2.22;;;0.20;;
53273;SDS011;39163;52.696;6.758;2022-09-01T09:39:41;1.65;;;0.50;;
53273;SDS011;39163;52.696;6.758;2022-09-01T09:42:12;1.38;;;0.10;;
53273;SDS011;39163;52.696;6.758;2022-09-01T09:44:46;0.75;;;0.10;;
53273;SDS011;39163;52.696;6.758;2022-09-01T09:52:45;2.17;;;0.20;;
53273;SDS011;39163;52.696;6.758;2022-09-01T09:57:56;2.08;;;0.15;;
53273;SDS011;39163;52.696;6.758;2022-09-01T10:00:28;3.05;;;0.10;;
53273;SDS011;39163;52.696;6.758;2022-09-01T10:02:59;1.50;;;0.10;;
53273;SDS011;39163;52.696;6.758;2022-09-01T10:05:43;3.97;;;0.10;;
53273;SDS011;39163;52.696;6.758;2022-09-01T10:08:14;2.25;;;0.00;;
53273;SDS011;39163;52.696;6.758;2022-09-01T10:11:02;0.75;;;0.10;;
53273;SDS011;39163;52.696;6.758;2022-09-01T10:13:31;3.42;;;0.10;;
53273;SDS011;39163;52.696;6.758;2022-09-01T10:16:01;1.90;;;0.30;;
53273;SDS011;39163;52.696;6.758;2022-09-01T10:18:30;0.50;;;0.10;;
53273;SDS011;39163;52.696;6.758;2022-09-01T10:21:07;3.17;;;0.50;;
53273;SDS011;39163;52.696;6.758;2022-09-01T10:23:33;4.22;;;0.40;;
53273;SDS011;39163;52.696;6.758;2022-09-01T10:26:02;0.85;;;0.10;;
53273;SDS011;39163;52.696;6.758;2022-09-01T10:28:37;2.40;;;0.10;;
53273;SDS011;39163;52.696;6.758;2022-09-01T10:31:11;1.60;;;0.05;;
53273;SDS011;39163;52.696;6.758;2022-09-01T10:33:38;1.00;;;0.10;;
53273;SDS011;39163;52.696;6.758;2022-09-01T10:36:05;0.98;;;0.10;;
53273;SDS011;39163;52.696;6.758;2022-09-01T10:38:31;0.25;;;0.10;;
53273;SDS011;39163;52.696;6.758;2022-09-01T10:40:57;2.47;;;0.10;;
53273;SDS011;39163;52.696;6.758;2022-09-01T10:48:44;3.60;;;0.08;;
53273;SDS011;39163;52.696;6.758;2022-09-01T10:53:47;1.75;;;0.10;;
53273;SDS011;39163;52.696;6.758;2022-09-01T11:01:08;0.25;;;0.10;;
53273;SDS011;39163;52.696;6.758;2022-09-01T11:03:38;0.55;;;0.10;;
53273;SDS011;39163;52.696;6.758;2022-09-01T11:06:31;3.92;;;0.20;;
53273;SDS011;39163;52.696;6.758;2022-09-01T11:14:51;2.10;;;0.10;;
53273;SDS011;39163;52.696;6.758;2022-09-01T11:17:25;2.70;;;0.10;;
53273;SDS011;39163;52.696;6.758;2022-09-01T11:20:05;3.10;;;0.10;;
53273;SDS011;39163;52.696;6.758;2022-09-01T11:23:09;0.75;;;0.10;;
53273;SDS011;39163;52.696;6.758;2022-09-01T11:25:37;3.30;;;0.10;;
53273;SDS011;39163;52.696;6.758;2022-09-01T11:30:59;0.68;;;0.03;;
53273;SDS011;39163;52.696;6.758;2022-09-01T11:36:34;1.90;;;0.00;;
53273;SDS011;39163;52.696;6.758;2022-09-01T11:46:57;0.80;;;0.10;;
53273;SDS011;39163;52.696;6.758;2022-09-01T11:49:34;3.33;;;0.17;;
53273;SDS011;39163;52.696;6.758;2022-09-01T11:52:04;5.65;;;0.20;;
53273;SDS011;39163;52.696;6.758;2022-09-01T11:54:40;2.40;;;0.10;;
53273;SDS011;39163;52.696;6.758;2022-09-01T11:59:51;3.38;;;0.10;;
53273;SDS011;39163;52.696;6.758;2022-09-01T12:02:18;2.33;;;0.30;;
53273;SDS011;39163;52.696;6.758;2022-09-01T12:04:47;2.25;;;0.10;;
53273;SDS011;39163;52.696;6.758;2022-09-01T12:07:23;1.08;;;0.10;;
53273;SDS011;39163;52.696;6.758;2022-09-01T12:09:51;1.48;;;0.20;;
53273;SDS011;39163;52.696;6.758;2022-09-01T12:15:01;0.30;;;0.13;;
53273;SDS011;39163;52.696;6.758;2022-09-01T12:17:34;1.90;;;0.10;;
53273;SDS011;39163;52.696;6.758;2022-09-01T12:22:45;0.50;;;0.10;;
53273;SDS011;39163;52.696;6.758;2022-09-01T12:25:22;1.55;;;0.10;;
53273;SDS011;39163;52.696;6.758;2022-09-01T12:27:49;1.23;;;0.45;;
53273;SDS011;39163;52.696;6.758;2022-09-01T12:30:25;0.30;;;0.10;;
53273;SDS011;39163;52.696;6.758;2022-09-01T12:32:52;0.38;;;0.00;;
53273;SDS011;39163;52.696;6.758;2022-09-01T12:35:24;1.45;;;0.10;;
53273;SDS011;39163;52.696;6.758;2022-09-01T12:37:51;1.35;;;0.10;;
53273;SDS011;39163;52.696;6.758;2022-09-01T12:40:39;0.45;;;0.00;;
53273;SDS011;39163;52.696;6.758;2022-09-01T12:43:05;1.65;;;0.40;;
53273;SDS011;39163;52.696;6.758;2022-09-01T12:45:38;1.75;;;0.10;;
53273;SDS011;39163;52.696;6.758;2022-09-01T12:48:06;0.47;;;0.00;;
53273;SDS011;39163;52.696;6.758;2022-09-01T12:51:01;1.50;;;0.10;;
53273;SDS011;39163;52.696;6.758;2022-09-01T12:53:51;0.55;;;0.10;;
53273;SDS011;39163;52.696;6.758;2022-09-01T12:56:25;1.45;;;0.03;;
53273;SDS011;39163;52.696;6.758;2022-09-01T13:01:31;1.05;;;0.10;;
53273;SDS011;39163;52.696;6.758;2022-09-01T13:06:45;0.47;;;0.10;;
53273;SDS011;39163;52.696;6.758;2022-09-01T13:09:11;1.45;;;0.10;;
53273;SDS011;39163;52.696;6.758;2022-09-01T13:11:40;1.45;;;0.10;;
53273;SDS011;39163;52.696;6.758;2022-09-01T13:14:06;2.88;;;0.10;;
53273;SDS011;39163;52.696;6.758;2022-09-01T13:16:35;0.45;;;0.10;;
53273;SDS011;39163;52.696;6.758;2022-09-01T13:19:01;0.40;;;0.10;;
53273;SDS011;39163;52.696;6.758;2022-09-01T13:21:28;0.57;;;0.10;;
53273;SDS011;39163;52.696;6.758;2022-09-01T13:23:55;0.98;;;0.00;;
53273;SDS011;39163;52.696;6.758;2022-09-01T13:26:23;2.67;;;0.10;;
53273;SDS011;39163;52.696;6.758;2022-09-01T13:28:50;0.80;;;0.10;;
53273;SDS011;39163;52.696;6.758;2022-09-01T13:34:01;0.70;;;0.10;;
53273;SDS011;39163;52.696;6.758;2022-09-01T13:36:30;1.48;;;0.10;;
53273;SDS011;39163;52.696;6.758;2022-09-01T13:38:56;1.35;;;0.10;;
53273;SDS011;39163;52.696;6.758;2022-09-01T13:41:22;2.03;;;0.00;;
53273;SDS011;39163;52.696;6.758;2022-09-01T13:43:48;0.50;;;0.05;;
53273;SDS011;39163;52.696;6.758;2022-09-01T13:46:13;0.93;;;0.10;;
53273;SDS011;39163;52.696;6.758;2022-09-01T13:48:39;1.10;;;0.10;;
53273;SDS011;39163;52.696;6.758;2022-09-01T13:51:05;1.33;;;0.10;;
53273;SDS011;39163;52.696;6.758;2022-09-01T13:53:33;1.65;;;0.10;;
53273;SDS011;39163;52.696;6.758;2022-09-01T13:55:59;0.22;;;0.10;;
53273;SDS011;39163;52.696;6.758;2022-09-01T13:58:28;0.68;;;0.10;;
53273;SDS011;39163;52.696;6.758;2022-09-01T14:00:54;2.70;;;0.10;;
53273;SDS011;39163;52.696;6.758;2022-09-01T14:03:26;1.50;;;0.10;;
53273;SDS011;39163;52.696;6.758;2022-09-01T14:05:52;0.35;;;0.10;;
53273;SDS011;39163;52.696;6.758;2022-09-01T14:08:21;1.10;;;0.10;;
53273;SDS011;39163;52.696;6.758;2022-09-01T14:10:48;0.52;;;0.30;;
53273;SDS011;39163;52.696;6.758;2022-09-01T14:13:24;1.38;;;0.10;;
53273;SDS011;39163;52.696;6.758;2022-09-01T14:15:54;4.13;;;0.10;;
53273;SDS011;39163;52.696;6.758;2022-09-01T14:18:20;1.88;;;0.00;;
53273;SDS011;39163;52.696;6.758;2022-09-01T14:20:47;4.22;;;0.10;;
53273;SDS011;39163;52.696;6.758;2022-09-01T14:23:18;5.18;;;0.52;;
53273;SDS011;39163;52.696;6.758;2022-09-01T14:25:45;1.38;;;0.10;;
53273;SDS011;39163;52.696;6.758;2022-09-01T14:28:16;2.03;;;0.10;;
53273;SDS011;39163;52.696;6.758;2022-09-01T14:30:43;3.33;;;0.10;;
53273;SDS011;39163;52.696;6.758;2022-09-01T14:33:10;2.80;;;0.63;;
53273;SDS011;39163;52.696;6.758;2022-09-01T14:35:37;0.30;;;0.10;;
53273;SDS011;39163;52.696;6.758;2022-09-01T14:38:04;1.55;;;0.08;;
53273;SDS011;39163;52.696;6.758;2022-09-01T14:40:35;0.68;;;0.20;;
53273;SDS011;39163;52.696;6.758;2022-09-01T14:43:06;1.10;;;0.10;;
53273;SDS011;39163;52.696;6.758;2022-09-01T14:45:34;1.55;;;0.52;;
53273;SDS011;39163;52.696;6.758;2022-09-01T14:48:18;1.10;;;0.10;;
53273;SDS011;39163;52.696;6.758;2022-09-01T14:50:46;0.10;;;0.00;;
53273;SDS011;39163;52.696;6.758;2022-09-01T14:53:15;1.75;;;0.10;;
53273;SDS011;39163;52.696;6.758;2022-09-01T14:55:41;0.25;;;0.10;;
53273;SDS011;39163;52.696;6.758;2022-09-01T14:58:08;2.40;;;0.28;;
53273;SDS011;39163;52.696;6.758;2022-09-01T15:00:34;2.22;;;0.10;;
53273;SDS011;39163;52.696;6.758;2022-09-01T15:03:01;0.82;;;0.10;;
53273;SDS011;39163;52.696;6.758;2022-09-01T15:05:27;2.83;;;0.00;;
53273;SDS011;39163;52.696;6.758;2022-09-01T15:07:53;1.40;;;0.10;;
53273;SDS011;39163;52.696;6.758;2022-09-01T15:10:20;0.20;;;0.10;;
53273;SDS011;39163;52.696;6.758;2022-09-01T15:12:48;2.53;;;0.20;;
53273;SDS011;39163;52.696;6.758;2022-09-01T15:15:14;2.95;;;0.13;;
53273;SDS011;39163;52.696;6.758;2022-09-01T15:17:40;2.85;;;0.20;;
53273;SDS011;39163;52.696;6.758;2022-09-01T15:20:07;0.57;;;0.03;;
53273;SDS011;39163;52.696;6.758;2022-09-01T15:22:52;0.95;;;0.00;;
53273;SDS011;39163;52.696;6.758;2022-09-01T15:25:17;0.95;;;0.10;;
53273;SDS011;39163;52.696;6.758;2022-09-01T15:27:43;1.17;;;0.00;;
53273;SDS011;39163;52.696;6.758;2022-09-01T15:30:10;3.38;;;0.10;;
53273;SDS011;39163;52.696;6.758;2022-09-01T15:32:41;0.50;;;0.10;;
53273;SDS011;39163;52.696;6.758;2022-09-01T15:35:08;0.20;;;0.00;;
53273;SDS011;39163;52.696;6.758;2022-09-01T15:37:35;2.30;;;0.00;;
53273;SDS011;39163;52.696;6.758;2022-09-01T15:40:00;1.13;;;0.00;;
53273;SDS011;39163;52.696;6.758;2022-09-01T15:42:27;1.75;;;0.00;;
53273;SDS011;39163;52.696;6.758;2022-09-01T15:44:53;0.30;;;0.10;;
53273;SDS011;39163;52.696;6.758;2022-09-01T15:47:19;2.25;;;0.10;;
53273;SDS011;39163;52.696;6.758;2022-09-01T15:49:45;2.72;;;0.00;;
53273;SDS011;39163;52.696;6.758;2022-09-01T15:52:10;1.48;;;0.00;;
53273;SDS011;39163;52.696;6.758;2022-09-01T15:54:36;2.65;;;0.10;;
53273;SDS011;39163;52.696;6.758;2022-09-01T15:57:03;1.75;;;0.10;;
53273;SDS011;39163;52.696;6.758;2022-09-01T15:59:30;4.78;;;0.00;;
53273;SDS011;39163;52.696;6.758;2022-09-01T16:01:57;1.67;;;0.10;;
53273;SDS011;39163;52.696;6.758;2022-09-01T16:04:22;0.32;;;0.10;;
53273;SDS011;39163;52.696;6.758;2022-09-01T16:06:48;1.30;;;0.10;;
53273;SDS011;39163;52.696;6.758;2022-09-01T16:09:15;1.25;;;0.20;;
53273;SDS011;39163;52.696;6.758;2022-09-01T16:11:45;0.40;;;0.10;;
53273;SDS011;39163;52.696;6.758;2022-09-01T16:14:11;2.22;;;0.10;;
53273;SDS011;39163;52.696;6.758;2022-09-01T16:19:30;0.65;;;0.00;;
53273;SDS011;39163;52.696;6.758;2022-09-01T16:24:42;2.10;;;0.10;;
53273;SDS011;39163;52.696;6.758;2022-09-01T16:27:11;2.97;;;0.85;;
53273;SDS011;39163;52.696;6.758;2022-09-01T16:32:29;0.95;;;0.38;;
53273;SDS011;39163;52.696;6.758;2022-09-01T16:34:59;2.40;;;0.10;;
53273;SDS011;39163;52.696;6.758;2022-09-01T16:58:39;6.40;;;0.20;;
53273;SDS011;39163;52.696;6.758;2022-09-01T17:04:42;1.50;;;0.10;;